TimeMST,TemperatureF,Dew PointF,Humidity,Sea Level PressureIn,VisibilityMPH,Wind Direction,Wind SpeedMPH,Gust SpeedMPH,PrecipitationIn,Events,Conditions,WindDirDegrees,DateUTC
12:15 AM,41.0,35.6,81,29.99,10.0,SSW,11.5,-,N/A,,Scattered Clouds,200,2013-01-27 07:15:00
12:35 AM,41.0,35.6,81,29.99,10.0,SW,12.7,-,N/A,,Partly Cloudy,220,2013-01-27 07:35:00
12:55 AM,41.0,35.6,81,29.98,10.0,SW,9.2,-,N/A,,Partly Cloudy,220,2013-01-27 07:55:00
1:15 AM,42.8,35.6,76,29.98,10.0,SW,8.1,-,N/A,,Mostly Cloudy,220,2013-01-27 08:15:00
1:35 AM,41.0,35.6,81,29.98,10.0,SSW,9.2,-,N/A,,Mostly Cloudy,210,2013-01-27 08:35:00
1:55 AM,41.0,35.6,81,29.98,10.0,SSW,6.9,-,N/A,,Mostly Cloudy,210,2013-01-27 08:55:00
2:15 AM,41.0,35.6,81,29.99,10.0,WSW,3.5,-,N/A,,Mostly Cloudy,240,2013-01-27 09:15:00
2:35 AM,39.2,35.6,87,29.99,10.0,Calm,Calm,-,N/A,,Partly Cloudy,0,2013-01-27 09:35:00
2:55 AM,37.4,37.4,100,29.98,10.0,South,6.9,-,N/A,,Scattered Clouds,180,2013-01-27 09:55:00
3:15 AM,39.2,37.4,93,29.98,10.0,South,5.8,-,N/A,,Mostly Cloudy,180,2013-01-27 10:15:00
3:35 AM,37.4,37.4,100,29.97,10.0,South,6.9,-,N/A,,Partly Cloudy,180,2013-01-27 10:35:00
3:55 AM,35.6,35.6,100,29.98,10.0,South,5.8,-,N/A,,Clear,180,2013-01-27 10:55:00
4:15 AM,33.8,33.8,100,29.98,10.0,Calm,Calm,-,N/A,,Clear,0,2013-01-27 11:15:00
4:35 AM,33.8,33.8,100,29.98,10.0,Calm,Calm,-,N/A,,Clear,0,2013-01-27 11:35:00
5:50 AM,33.8,33.8,100,29.98,10.0,SW,11.5,-,N/A,,Partly Cloudy,220,2013-01-27 12:50:00
6:50 AM,35.6,32.0,87,30.00,10.0,SSW,8.1,-,N/A,,Scattered Clouds,200,2013-01-27 13:50:00
7:50 AM,37.4,33.8,87,29.99,10.0,South,11.5,-,N/A,,Partly Cloudy,190,2013-01-27 14:50:00
8:50 AM,41.0,35.6,81,30.01,10.0,SSW,13.8,-,N/A,,Partly Cloudy,210,2013-01-27 15:50:00
9:50 AM,44.6,37.4,76,30.02,10.0,SW,17.3,-,N/A,,Partly Cloudy,230,2013-01-27 16:50:00
10:50 AM,48.2,37.4,66,30.01,10.0,SW,19.6,-,N/A,,Partly Cloudy,230,2013-01-27 17:50:00
11:50 AM,50.0,37.4,62,30.01,10.0,WSW,20.7,-,N/A,,Partly Cloudy,240,2013-01-27 18:50:00
12:50 PM,51.8,35.6,54,29.97,10.0,WSW,21.9,26.5,N/A,,Mostly Cloudy,240,2013-01-27 19:50:00
1:50 PM,53.6,32.0,44,29.96,10.0,WSW,18.4,-,N/A,,Mostly Cloudy,240,2013-01-27 20:50:00
2:50 PM,53.6,32.0,44,29.95,10.0,WSW,20.7,27.6,N/A,,Mostly Cloudy,250,2013-01-27 21:50:00
3:50 PM,53.6,30.2,41,29.94,10.0,WSW,17.3,21.9,N/A,,Mostly Cloudy,250,2013-01-27 22:50:00
4:50 PM,51.8,30.2,44,29.94,10.0,West,10.4,-,N/A,,Mostly Cloudy,260,2013-01-27 23:50:00
5:50 PM,48.2,33.8,58,29.95,10.0,Calm,Calm,-,N/A,,Mostly Cloudy,0,2013-01-28 00:50:00
6:50 PM,46.4,35.6,66,29.97,10.0,Calm,Calm,-,N/A,,Mostly Cloudy,0,2013-01-28 01:50:00
7:50 PM,41.0,37.4,87,29.97,10.0,West,6.9,-,N/A,,Mostly Cloudy,260,2013-01-28 02:50:00
8:50 PM,41.0,35.6,81,29.96,1.0,West,10.4,-,N/A,,Partly Cloudy,270,2013-01-28 03:50:00
9:15 PM,39.2,35.6,87,29.97,10.0,West,6.9,-,N/A,,Clear,280,2013-01-28 04:15:00
9:35 PM,39.2,35.6,87,29.97,10.0,West,13.8,-,N/A,,Clear,270,2013-01-28 04:35:00
9:55 PM,39.2,35.6,87,29.96,10.0,West,12.7,-,N/A,,Clear,260,2013-01-28 04:55:00
10:15 PM,39.2,35.6,87,29.96,10.0,West,11.5,-,N/A,,Clear,260,2013-01-28 05:15:00
10:35 PM,37.4,35.6,93,29.96,10.0,WSW,6.9,-,N/A,,Clear,240,2013-01-28 05:35:00
10:55 PM,37.4,37.4,100,29.97,10.0,WSW,10.4,-,N/A,,Clear,250,2013-01-28 05:55:00
11:15 PM,39.2,33.8,81,29.96,10.0,Calm,Calm,-,N/A,,Partly Cloudy,0,2013-01-28 06:15:00
11:35 PM,39.2,33.8,81,29.96,10.0,WSW,4.6,-,N/A,,Scattered Clouds,240,2013-01-28 06:35:00
11:55 PM,37.4,32.0,81,29.96,10.0,South,6.9,-,N/A,,Mostly Cloudy,190,2013-01-28 06:55:00